Time;durP1;ratioP1;P1;durP2;ratioP2;P2;SDS_P1;SDS_P2;PMS_P1;PMS_P2;Temp;Humidity;BMP_temperature;BMP_pressure;BME280_temperature;BME280_humidity;BME280_pressure;Samples;Min_cycle;Max_cycle;Signal;HPM_P1;HPM_P2
2022/04/10 00:04:25;;;;;;;13.20;2.72;;;;;;;3.40;100.00;101058.00;10178313;28;20038;-61
2022/04/10 00:09:21;;;;;;;10.57;1.63;;;;;;;3.25;100.00;101057.91;10191456;28;20081;-62
2022/04/10 00:14:18;;;;;;;11.18;2.70;;;;;;;3.25;100.00;101066.03;10191857;28;20128;-61
2022/04/10 00:19:15;;;;;;;15.20;2.20;;;;;;;3.10;100.00;101054.03;10194155;28;20125;-63
2022/04/10 00:24:11;;;;;;;15.20;2.30;;;;;;;2.98;100.00;101061.53;10192114;28;20081;-62
2022/04/10 00:29:08;;;;;;;12.95;1.80;;;;;;;2.93;100.00;101059.59;10181500;28;20100;-62
2022/04/10 00:34:04;;;;;;;10.48;2.42;;;;;;;2.91;100.00;101055.53;10195434;28;20092;-63
2022/04/10 00:39:01;;;;;;;9.82;2.00;;;;;;;2.82;100.00;101046.28;10194297;28;20092;-62
2022/04/10 00:44:15;;;;;;;15.93;2.03;;;;;;;2.91;100.00;101060.94;10191529;28;20096;-62
2022/04/10 00:49:12;;;;;;;11.95;2.30;;;;;;;2.80;100.00;101059.22;10188477;28;20485;-63
2022/04/10 00:54:24;;;;;;;10.52;1.95;;;;;;;2.91;100.00;101060.94;10188912;28;20050;-62
2022/04/10 00:59:21;;;;;;;17.23;3.33;;;;;;;2.71;100.00;101062.38;10187564;28;20049;-62
2022/04/10 01:04:18;;;;;;;10.05;2.45;;;;;;;2.76;100.00;101068.88;10194017;28;20601;-62
2022/04/10 01:09:15;;;;;;;10.20;1.67;;;;;;;2.78;100.00;101088.34;10191562;28;20096;-62
2022/04/10 01:14:12;;;;;;;11.65;3.35;;;;;;;2.78;100.00;101077.56;10189912;28;20076;-63
2022/04/10 01:19:09;;;;;;;9.48;1.63;;;;;;;2.77;100.00;101073.22;10192008;28;20156;-63
2022/04/10 01:24:08;;;;;;;11.93;2.15;;;;;;;2.59;100.00;101091.41;10193187;28;20073;-62
2022/04/10 01:29:07;;;;;;;13.20;2.53;;;;;;;2.60;100.00;101087.66;10181960;28;20136;-62
2022/04/10 01:34:07;;;;;;;12.50;2.97;;;;;;;2.58;100.00;101084.41;10189655;28;20104;-63
2022/04/10 01:39:06;;;;;;;14.68;3.90;;;;;;;2.62;100.00;101100.88;10191320;28;20090;-63
2022/04/10 01:44:07;;;;;;;14.07;2.05;;;;;;;2.53;100.00;101105.94;10189164;28;20134;-63
2022/04/10 01:49:05;;;;;;;9.90;1.80;;;;;;;2.69;100.00;101094.22;10191439;28;20067;-64
2022/04/10 01:54:02;;;;;;;11.35;2.05;;;;;;;2.73;100.00;101108.81;10182775;28;20132;-62
2022/04/10 01:58:58;;;;;;;9.30;2.00;;;;;;;2.81;100.00;101117.53;10182051;28;20049;-62
2022/04/10 02:03:55;;;;;;;14.10;2.95;;;;;;;2.93;100.00;101129.81;10183170;28;20144;-64
2022/04/10 02:08:51;;;;;;;7.63;1.90;;;;;;;2.91;100.00;101126.56;10190764;28;20053;-63
2022/04/10 02:13:48;;;;;;;7.25;1.92;;;;;;;2.97;100.00;101135.53;10191193;28;20046;-63
2022/04/10 02:18:46;;;;;;;8.25;2.30;;;;;;;2.77;100.00;101146.16;10189791;28;20469;-63
2022/04/10 02:23:43;;;;;;;13.52;3.72;;;;;;;2.86;100.00;101140.03;10185496;28;20797;-62
2022/04/10 02:28:40;;;;;;;9.85;2.35;;;;;;;2.62;100.00;101135.97;10190489;28;20046;-62
2022/04/10 02:33:37;;;;;;;7.97;2.45;;;;;;;2.34;100.00;101150.53;10184235;28;20129;-63
2022/04/10 02:38:34;;;;;;;10.85;2.95;;;;;;;2.14;100.00;101143.84;10188457;28;20046;-63
2022/04/10 02:43:31;;;;;;;12.13;3.05;;;;;;;2.01;100.00;101147.69;10179932;28;20137;-62
2022/04/10 02:48:27;;;;;;;10.00;2.45;;;;;;;1.98;100.00;101166.28;10188447;28;20184;-62
2022/04/10 02:53:24;;;;;;;6.00;1.83;;;;;;;1.82;100.00;101166.06;10185690;28;20931;-63
2022/04/10 02:58:20;;;;;;;9.32;2.15;;;;;;;1.32;100.00;101175.00;10185671;28;20081;-62
2022/04/10 03:03:17;;;;;;;4.50;1.85;;;;;;;1.35;100.00;101169.13;10176538;28;20173;-62
2022/04/10 03:08:13;;;;;;;7.78;2.10;;;;;;;1.50;100.00;101165.03;10186571;28;20722;-62
2022/04/10 03:13:10;;;;;;;5.93;2.30;;;;;;;1.65;100.00;101162.59;10189491;28;20246;-62
2022/04/10 03:18:06;;;;;;;7.32;2.25;;;;;;;1.70;100.00;101159.16;10168930;28;20066;-63
2022/04/10 03:23:08;;;;;;;8.18;2.50;;;;;;;1.85;100.00;101162.84;10178112;28;20089;-63
2022/04/10 03:28:04;;;;;;;10.20;3.57;;;;;;;1.87;100.00;101171.50;10183578;28;20498;-63
2022/04/10 03:33:01;;;;;;;9.93;3.72;;;;;;;1.83;100.00;101158.78;10188737;28;20088;-62
2022/04/10 03:37:57;;;;;;;13.45;3.65;;;;;;;1.77;100.00;101154.41;10186683;28;20088;-62
2022/04/10 03:42:54;;;;;;;9.52;3.10;;;;;;;1.81;100.00;101148.25;10188920;28;20133;-64
2022/04/10 03:47:50;;;;;;;15.40;3.65;;;;;;;1.78;100.00;101167.63;10185848;28;20129;-64
2022/04/10 03:52:49;;;;;;;16.48;2.78;;;;;;;1.73;100.00;101169.44;10177177;28;20065;-65
2022/04/10 03:57:45;;;;;;;11.88;2.47;;;;;;;1.79;100.00;101174.66;10172442;28;20490;-63
2022/04/10 04:02:43;;;;;;;7.00;2.58;;;;;;;1.74;100.00;101177.28;10166155;28;20138;-63
2022/04/10 04:07:40;;;;;;;11.20;3.10;;;;;;;1.71;100.00;101172.38;10187566;28;20050;-63
2022/04/10 04:12:37;;;;;;;13.35;3.70;;;;;;;1.76;100.00;101177.81;10180426;28;20057;-62
2022/04/10 04:17:33;;;;;;;12.52;3.33;;;;;;;1.79;100.00;101174.66;10176388;28;20502;-62
2022/04/10 04:22:30;;;;;;;12.05;3.22;;;;;;;1.75;100.00;101200.47;10187109;28;20108;-63
2022/04/10 04:27:26;;;;;;;11.60;3.55;;;;;;;1.81;100.00;101214.81;10180639;28;20561;-63
2022/04/10 04:32:23;;;;;;;8.80;3.10;;;;;;;1.82;100.00;101217.28;10187839;28;20058;-64
2022/04/10 04:37:19;;;;;;;19.08;3.58;;;;;;;1.85;100.00;101238.34;10182525;28;20156;-64
2022/04/10 04:42:16;;;;;;;11.90;3.63;;;;;;;1.78;100.00;101243.09;10184695;28;20122;-62
2022/04/10 04:47:12;;;;;;;12.50;3.38;;;;;;;1.88;100.00;101248.66;10192001;28;20145;-63
2022/04/10 04:52:09;;;;;;;17.80;4.07;;;;;;;1.88;100.00;101258.63;10174534;28;20081;-63
2022/04/10 04:57:05;;;;;;;15.68;3.70;;;;;;;1.99;100.00;101243.41;10193567;28;20085;-62
2022/04/10 05:02:02;;;;;;;13.63;2.85;;;;;;;2.02;100.00;101248.31;10170909;28;20157;-63
2022/04/10 05:06:58;;;;;;;18.15;3.95;;;;;;;2.06;100.00;101260.25;10187152;28;20049;-63
2022/04/10 05:11:55;;;;;;;17.27;3.38;;;;;;;2.12;100.00;101269.25;10193318;28;20120;-62
2022/04/10 05:16:51;;;;;;;23.65;4.55;;;;;;;2.01;100.00;101273.66;10181518;28;20638;-62
2022/04/10 05:21:48;;;;;;;21.10;4.88;;;;;;;2.08;100.00;101279.69;10194575;28;20050;-62
2022/04/10 05:26:45;;;;;;;13.13;3.88;;;;;;;2.09;100.00;101290.25;10191319;28;20050;-62
2022/04/10 05:31:42;;;;;;;17.40;4.43;;;;;;;2.10;100.00;101288.38;10193376;28;20049;-62
2022/04/10 05:36:38;;;;;;;16.10;4.35;;;;;;;2.25;100.00;101291.28;10182475;28;20089;-62
2022/04/10 05:41:35;;;;;;;15.25;3.72;;;;;;;2.25;100.00;101291.28;10163922;28;20494;-63
2022/04/10 05:46:31;;;;;;;17.40;3.40;;;;;;;2.27;100.00;101294.53;10171776;28;20074;-63
2022/04/10 05:51:28;;;;;;;20.58;3.95;;;;;;;2.29;100.00;101300.50;10166064;28;20054;-63
2022/04/10 05:56:25;;;;;;;21.77;3.80;;;;;;;2.36;100.00;101323.81;10166184;28;20093;-62
2022/04/10 06:01:22;;;;;;;15.98;3.20;;;;;;;2.46;100.00;101332.03;10164893;28;20077;-63
2022/04/10 06:06:19;;;;;;;14.55;3.53;;;;;;;2.51;100.00;101334.84;10162268;28;20042;-62
2022/04/10 06:11:15;;;;;;;19.90;3.92;;;;;;;2.47;100.00;101336.38;10163810;28;20093;-63
2022/04/10 06:16:12;;;;;;;11.95;2.70;;;;;;;2.54;100.00;101342.44;10162626;28;20143;-64
2022/04/10 06:21:08;;;;;;;20.02;3.33;;;;;;;2.58;100.00;101348.97;10163556;28;20130;-64
2022/04/10 06:26:05;;;;;;;12.40;3.63;;;;;;;2.78;100.00;101358.41;10163219;28;20069;-64
2022/04/10 06:31:02;;;;;;;9.85;2.70;;;;;;;2.81;100.00;101366.00;10173877;28;20078;-62
2022/04/10 06:35:58;;;;;;;11.02;2.70;;;;;;;2.85;100.00;101369.84;10172463;28;20104;-62
2022/04/10 06:40:55;;;;;;;9.82;1.92;;;;;;;2.91;100.00;101366.16;10167677;28;20042;-62
2022/04/10 06:45:52;;;;;;;9.38;2.05;;;;;;;2.79;100.00;101362.75;10162855;28;20116;-63
2022/04/10 06:50:49;;;;;;;10.23;1.92;;;;;;;2.86;100.00;101363.38;10162578;28;20668;-62
2022/04/10 06:55:45;;;;;;;4.97;1.20;;;;;;;2.91;100.00;101368.84;10173546;28;20125;-61
2022/04/10 07:00:42;;;;;;;11.05;1.67;;;;;;;2.95;100.00;101383.50;10171786;28;20050;-62
2022/04/10 07:05:39;;;;;;;10.82;1.63;;;;;;;3.09;100.00;101386.66;10167749;28;20145;-61
2022/04/10 07:10:37;;;;;;;9.70;2.50;;;;;;;3.05;100.00;101397.13;10171753;28;20976;-63
2022/04/10 07:15:33;;;;;;;17.20;3.10;;;;;;;2.95;100.00;101397.00;10161981;28;20135;-64
2022/04/10 07:20:29;;;;;;;13.13;2.63;;;;;;;2.98;100.00;101391.09;10162683;28;20137;-64
2022/04/10 07:25:26;;;;;;;15.77;3.33;;;;;;;3.06;100.00;101398.75;10161700;28;20034;-65
2022/04/10 07:30:23;;;;;;;13.63;3.30;;;;;;;3.13;100.00;101402.09;10157653;28;20202;-62
2022/04/10 07:35:21;;;;;;;15.77;3.42;;;;;;;3.28;100.00;101400.66;10135630;28;21361;-61
2022/04/10 07:40:19;;;;;;;18.13;3.20;;;;;;;3.49;100.00;101396.28;10156798;28;20050;-62
2022/04/10 07:50:30;;;;;;;17.38;3.67;;;;;;;3.83;100.00;101391.50;10159315;28;20100;-62
2022/04/10 07:55:27;;;;;;;19.42;3.13;;;;;;;3.89;100.00;101400.47;10167049;28;20091;-62
2022/04/10 08:00:24;;;;;;;12.63;2.20;;;;;;;4.07;100.00;101399.31;10156376;28;20046;-62
2022/04/10 08:05:20;;;;;;;10.60;1.98;;;;;;;4.32;100.00;101393.28;10150712;28;20509;-62
2022/04/10 08:10:17;;;;;;;13.85;2.92;;;;;;;4.65;100.00;101394.84;10172687;28;20046;-62
2022/04/10 08:15:14;;;;;;;14.45;2.42;;;;;;;4.57;100.00;101398.03;10173451;28;20053;-62
2022/04/10 08:20:12;;;;;;;8.10;2.63;;;;;;;4.08;100.00;101417.16;10169581;28;20485;-62
2022/04/10 08:25:10;;;;;;;10.77;2.58;;;;;;;3.83;100.00;101451.03;10172123;28;20100;-62
2022/04/10 08:30:12;;;;;;;13.50;2.25;;;;;;;3.20;100.00;101457.81;10174826;28;20115;-63
2022/04/10 08:35:10;;;;;;;15.27;2.40;;;;;;;3.45;100.00;101452.75;10169056;28;20338;-62
2022/04/10 08:40:08;;;;;;;9.48;2.20;;;;;;;3.61;100.00;101452.94;10174092;28;20037;-62
2022/04/10 08:45:09;;;;;;;13.48;2.20;;;;;;;3.73;100.00;101461.72;10171095;28;20884;-62
2022/04/10 08:50:06;;;;;;;9.57;2.40;;;;;;;3.79;100.00;101455.31;10156482;28;20046;-63
2022/04/10 08:55:03;;;;;;;11.13;1.90;;;;;;;3.92;100.00;101476.56;10164370;28;20136;-62
2022/04/10 09:00:00;;;;;;;13.85;2.10;;;;;;;4.17;100.00;101457.03;10156258;28;20069;-63
2022/04/10 09:04:56;;;;;;;9.80;1.40;;;;;;;4.42;100.00;101451.00;10152477;28;20631;-63
2022/04/10 09:09:56;;;;;;;12.93;2.70;;;;;;;4.65;100.00;101454.44;10151914;28;20070;-63
2022/04/10 09:15:03;;;;;;;12.70;1.50;;;;;;;4.84;100.00;101454.84;10139764;28;20153;-63
2022/04/10 09:20:00;;;;;;;9.60;1.85;;;;;;;4.87;100.00;101442.66;10151193;28;20057;-63
2022/04/10 09:25:05;;;;;;;16.85;1.88;;;;;;;5.03;100.00;101439.78;10190376;28;20057;-63
2022/04/10 09:30:03;;;;;;;9.82;1.50;;;;;;;5.44;100.00;101455.44;10155780;28;20050;-66
2022/04/10 09:34:59;;;;;;;13.45;1.90;;;;;;;5.65;100.00;101442.75;10138763;28;20168;-61
2022/04/10 09:40:20;;;;;;;7.35;2.13;;;;;;;5.38;100.00;101445.63;10151854;28;20133;-62
2022/04/10 09:45:38;;;;;;;11.27;1.90;;;;;;;5.87;100.00;101445.25;10126221;28;20183;-63
2022/04/10 09:50:35;;;;;;;11.25;1.73;;;;;;;5.88;100.00;101441.47;10146756;28;20101;-61
2022/04/10 09:55:41;;;;;;;8.80;1.80;;;;;;;6.14;100.00;101449.66;10161729;28;20134;-61
2022/04/10 10:00:43;;;;;;;10.98;1.90;;;;;;;6.22;100.00;101440.97;10164248;28;20147;-61
2022/04/10 10:05:40;;;;;;;7.70;1.30;;;;;;;6.21;100.00;101450.22;10176072;28;20189;-61
2022/04/10 10:10:38;;;;;;;11.88;1.38;;;;;;;6.18;100.00;101456.19;10162456;28;20077;-61
2022/04/10 10:15:36;;;;;;;9.73;1.30;;;;;;;6.28;100.00;101456.19;10175102;28;20049;-61
2022/04/10 10:20:33;;;;;;;10.32;1.55;;;;;;;6.76;100.00;101459.44;10163548;28;20049;-61
2022/04/10 10:25:35;;;;;;;8.82;1.38;;;;;;;7.47;100.00;101460.31;10140700;28;20146;-61
2022/04/10 10:30:43;;;;;;;7.95;2.00;;;;;;;7.03;100.00;101466.44;10150833;28;20111;-63
2022/04/10 10:35:42;;;;;;;13.10;1.77;;;;;;;7.25;100.00;101461.50;10152808;28;20061;-63
2022/04/10 10:40:38;;;;;;;7.70;1.40;;;;;;;7.56;100.00;101480.44;10151462;28;20154;-63
2022/04/10 10:45:41;;;;;;;11.75;2.33;;;;;;;7.88;100.00;101490.88;10156386;28;20104;-62
2022/04/10 10:50:38;;;;;;;3.72;0.60;;;;;;;8.50;91.49;101493.25;10141881;28;20137;-62
2022/04/10 10:55:44;;;;;;;7.93;1.77;;;;;;;8.83;81.53;101486.13;10140704;28;20066;-62
2022/04/10 11:00:44;;;;;;;4.72;0.75;;;;;;;8.06;75.42;101494.06;10149424;28;20078;-62
2022/04/10 11:05:42;;;;;;;8.40;1.15;;;;;;;7.76;88.20;101485.78;10161530;28;20124;-61
2022/04/10 11:10:50;;;;;;;6.90;1.30;;;;;;;8.31;84.44;101506.69;10157509;28;20054;-61
2022/04/10 11:15:52;;;;;;;8.80;1.63;;;;;;;9.10;72.20;101504.69;10161428;28;20046;-61
2022/04/10 11:21:19;;;;;;;5.93;1.48;;;;;;;8.83;77.94;101502.50;10156227;28;20094;-61
2022/04/10 11:26:24;;;;;;;11.15;1.30;;;;;;;7.80;98.05;101552.19;10152663;28;20068;-61
2022/04/10 11:31:41;;;;;;;8.05;1.58;;;;;;;6.71;100.00;101543.72;10162343;28;20576;-61
2022/04/10 11:36:50;;;;;;;11.85;1.63;;;;;;;5.51;100.00;101585.41;10139704;28;20046;-61
2022/04/10 11:41:48;;;;;;;7.43;1.40;;;;;;;5.56;100.00;101559.09;10150921;28;20073;-61
2022/04/10 11:46:45;;;;;;;9.10;1.10;;;;;;;5.78;100.00;101568.97;10152187;28;20133;-61
2022/04/10 11:51:56;;;;;;;10.60;1.60;;;;;;;7.84;100.00;101551.63;10155001;28;20046;-61
2022/04/10 11:56:53;;;;;;;8.95;1.50;;;;;;;9.12;100.00;101542.59;10153869;28;20042;-61
2022/04/10 12:01:50;;;;;;;5.47;1.30;;;;;;;10.29;96.82;101543.94;10160015;28;20123;-61
2022/04/10 12:06:47;;;;;;;6.43;1.13;;;;;;;11.03;90.16;101539.78;10147238;28;20061;-61
2022/04/10 12:11:43;;;;;;;7.35;1.67;;;;;;;11.31;82.61;101535.16;10140260;28;20045;-60
2022/04/10 12:16:41;;;;;;;9.27;1.83;;;;;;;11.50;63.63;101533.13;10152689;28;20153;-61
2022/04/10 12:21:47;;;;;;;6.88;0.90;;;;;;;10.06;62.08;101533.88;10159361;28;20055;-62
2022/04/10 12:26:45;;;;;;;8.05;1.58;;;;;;;8.99;77.44;101599.44;10149235;28;20417;-62
2022/04/10 12:31:43;;;;;;;9.00;0.93;;;;;;;9.42;92.57;101577.78;10149823;28;20798;-62
2022/04/10 12:36:47;;;;;;;8.60;2.40;;;;;;;10.55;79.35;101567.34;10154462;28;20769;-62
2022/04/10 12:41:44;;;;;;;6.90;1.77;;;;;;;10.46;67.06;101561.75;10150434;28;20782;-61
2022/04/10 12:46:41;;;;;;;9.73;1.33;;;;;;;9.37;80.80;101577.81;10149038;28;20042;-61
2022/04/10 12:52:00;;;;;;;6.03;0.98;;;;;;;8.26;97.26;101611.06;10156902;28;20050;-61
2022/04/10 12:56:56;;;;;;;8.32;0.95;;;;;;;9.15;97.94;101602.06;10143310;28;20077;-62
2022/04/10 13:01:53;;;;;;;10.38;1.40;;;;;;;9.44;91.84;101597.38;10143282;28;20153;-62
2022/04/10 13:06:51;;;;;;;11.38;2.35;;;;;;;10.00;89.78;101601.44;10155009;28;20054;-62
2022/04/10 13:11:50;;;;;;;12.70;1.50;;;;;;;10.14;87.98;101581.56;10144968;28;20104;-62
2022/04/10 13:16:49;;;;;;;7.82;1.80;;;;;;;11.26;82.29;101581.78;10154277;28;20739;-62
2022/04/10 13:21:46;;;;;;;8.23;1.42;;;;;;;9.93;73.47;101605.59;10159857;28;20054;-63
2022/04/10 13:26:44;;;;;;;5.35;1.15;;;;;;;9.20;70.22;101611.00;10160459;28;20049;-62
2022/04/10 13:31:46;;;;;;;9.32;1.70;;;;;;;10.03;63.40;101644.56;10166816;28;20096;-62
2022/04/10 13:36:43;;;;;;;9.88;1.17;;;;;;;9.13;67.69;101642.44;10167822;28;20689;-62
2022/04/10 13:41:42;;;;;;;5.40;1.23;;;;;;;8.48;74.81;101667.97;10156015;28;20104;-62
2022/04/10 13:46:39;;;;;;;9.32;2.00;;;;;;;8.11;88.18;101661.00;10146150;28;20054;-62
2022/04/10 13:51:35;;;;;;;6.95;1.48;;;;;;;8.32;85.45;101655.47;10165632;28;20057;-62
2022/04/10 13:56:33;;;;;;;9.02;1.40;;;;;;;8.34;91.06;101631.47;10157273;28;20096;-62
2022/04/10 14:01:30;;;;;;;6.70;1.40;;;;;;;9.21;95.09;101617.25;10158794;28;20129;-61
2022/04/10 14:06:27;;;;;;;7.35;1.70;;;;;;;9.88;73.59;101637.34;10164567;28;20116;-62
2022/04/10 14:11:29;;;;;;;10.95;1.90;;;;;;;9.82;71.77;101633.06;10161516;28;20138;-62
2022/04/10 14:16:26;;;;;;;11.00;1.92;;;;;;;9.65;70.52;101643.59;10170644;28;20041;-61
2022/04/10 14:21:30;;;;;;;7.90;1.42;;;;;;;10.40;69.44;101658.63;10164685;28;20511;-62
2022/04/10 14:26:27;;;;;;;11.20;1.92;;;;;;;9.56;72.00;101646.16;10176081;28;20081;-62
2022/04/10 14:31:25;;;;;;;12.20;2.00;;;;;;;10.11;70.30;101640.34;10183148;28;20102;-62
2022/04/10 14:36:22;;;;;;;12.32;2.75;;;;;;;9.75;68.62;101642.66;10183167;28;20046;-63
2022/04/10 14:41:20;;;;;;;9.85;1.73;;;;;;;9.03;74.58;101644.16;10180163;28;20099;-62
2022/04/10 14:46:17;;;;;;;10.43;1.85;;;;;;;8.80;76.93;101666.69;10182171;28;20077;-62
2022/04/10 14:51:14;;;;;;;14.13;2.35;;;;;;;8.99;80.01;101659.47;10181826;28;20057;-62
2022/04/10 14:56:10;;;;;;;11.57;2.42;;;;;;;9.08;79.30;101667.06;10173824;28;20126;-62
2022/04/10 15:01:07;;;;;;;7.47;1.10;;;;;;;8.71;78.99;101662.94;10160162;28;20137;-62
2022/04/10 15:06:04;;;;;;;13.93;3.42;;;;;;;9.11;80.51;101666.47;10151294;28;20133;-61
2022/04/10 15:11:02;;;;;;;13.77;2.90;;;;;;;8.94;74.21;101667.69;10149250;28;20050;-62
2022/04/10 15:15:59;;;;;;;13.77;2.85;;;;;;;9.21;69.68;101666.38;10140385;28;20050;-62
2022/04/10 15:20:55;;;;;;;8.63;1.70;;;;;;;9.02;82.06;101702.53;10157220;28;20046;-63
2022/04/10 15:25:53;;;;;;;11.45;1.92;;;;;;;9.23;82.51;101696.94;10156508;28;20112;-63
2022/04/10 15:30:50;;;;;;;8.82;1.38;;;;;;;8.95;86.62;101712.94;10176672;28;20065;-63
2022/04/10 15:35:47;;;;;;;6.72;0.90;;;;;;;8.91;92.04;101716.53;10165232;28;20089;-63
2022/04/10 15:40:44;;;;;;;7.95;1.20;;;;;;;8.59;95.15;101699.53;10162042;28;20137;-63
2022/04/10 15:45:40;;;;;;;2.97;0.98;;;;;;;8.49;96.45;101696.84;10147462;28;20097;-63
2022/04/10 15:50:41;;;;;;;7.82;1.33;;;;;;;8.05;100.00;101705.69;10162312;28;20065;-63
2022/04/10 15:55:38;;;;;;;9.20;1.70;;;;;;;8.00;100.00;101708.41;10159440;28;20062;-64
2022/04/10 16:00:35;;;;;;;7.03;1.17;;;;;;;7.80;100.00;101709.28;10148545;28;20121;-62
2022/04/10 16:05:31;;;;;;;7.03;1.40;;;;;;;7.45;100.00;101696.50;10160604;28;20134;-64
2022/04/10 16:10:28;;;;;;;6.93;1.42;;;;;;;7.56;100.00;101703.59;10149221;28;20042;-63
2022/04/10 16:15:24;;;;;;;6.10;1.25;;;;;;;7.65;100.00;101695.69;10155760;28;20058;-63
2022/04/10 16:20:22;;;;;;;8.30;1.60;;;;;;;7.79;100.00;101703.00;10156425;28;20049;-63
2022/04/10 16:25:18;;;;;;;6.32;1.15;;;;;;;7.49;100.00;101701.13;10164949;28;20053;-63
2022/04/10 16:30:15;;;;;;;9.32;1.67;;;;;;;7.33;100.00;101705.78;10153329;28;20049;-63
2022/04/10 16:35:29;;;;;;;7.03;1.33;;;;;;;6.20;100.00;101736.44;10147054;28;20050;-63
2022/04/10 16:40:28;;;;;;;17.85;3.47;;;;;;;6.01;100.00;101755.03;10150371;28;20610;-63
2022/04/10 16:45:30;;;;;;;9.45;2.55;;;;;;;5.97;100.00;101743.91;10150013;28;20985;-63
2022/04/10 16:50:27;;;;;;;6.32;1.35;;;;;;;5.85;100.00;101743.25;10158451;28;20056;-64
2022/04/10 16:55:24;;;;;;;10.30;2.63;;;;;;;6.30;100.00;101747.34;10161212;28;20064;-62
2022/04/10 17:00:22;;;;;;;6.40;1.45;;;;;;;6.43;100.00;101741.44;10166122;28;20416;-66
2022/04/10 17:05:21;;;;;;;8.85;1.20;;;;;;;6.21;100.00;101748.94;10151716;28;20081;-66
2022/04/10 17:10:18;;;;;;;5.53;1.38;;;;;;;6.60;100.00;101751.31;10159814;28;20049;-66
2022/04/10 17:15:14;;;;;;;7.53;1.10;;;;;;;6.72;100.00;101743.72;10162100;28;20054;-66
2022/04/10 17:20:11;;;;;;;6.53;1.27;;;;;;;6.57;100.00;101751.81;10164794;28;20046;-66
2022/04/10 17:25:08;;;;;;;3.47;0.95;;;;;;;6.16;100.00;101751.63;10199818;28;20046;-65
2022/04/10 17:30:06;;;;;;;5.72;1.23;;;;;;;6.03;100.00;101751.00;10157079;28;20108;-65
2022/04/10 17:35:03;;;;;;;3.92;0.93;;;;;;;5.94;100.00;101747.16;10166406;28;20133;-65
2022/04/10 17:40:00;;;;;;;6.35;1.70;;;;;;;6.05;100.00;101751.53;10150048;28;20140;-66
2022/04/10 17:45:02;;;;;;;;;;;;;;;5.87;100.00;101749.22;10147827;28;20073;-66
2022/04/10 17:49:59;;;;;;;7.57;1.95;;;;;;;5.79;100.00;101757.88;10154010;28;19928;-67
2022/04/10 17:54:56;;;;;;;9.65;2.03;;;;;;;5.74;100.00;101760.53;10158338;28;20132;-67
2022/04/10 17:59:52;;;;;;;8.27;1.58;;;;;;;5.60;100.00;101754.75;10158415;28;20069;-67
2022/04/10 18:04:48;;;;;;;8.68;1.40;;;;;;;5.54;100.00;101767.44;10162649;28;20075;-67
2022/04/10 18:09:45;;;;;;;5.97;1.55;;;;;;;5.53;100.00;101765.81;10160203;28;20034;-67
2022/04/10 18:14:41;;;;;;;13.02;1.23;;;;;;;5.57;100.00;101772.34;10163816;28;20141;-66
2022/04/10 18:19:39;;;;;;;8.68;1.00;;;;;;;5.59;100.00;101778.34;10166975;28;20046;-66
2022/04/10 18:24:36;;;;;;;6.30;1.58;;;;;;;5.43;100.00;101776.53;10171831;28;20046;-67
2022/04/10 18:29:33;;;;;;;7.97;2.03;;;;;;;5.38;100.00;101776.50;10173872;28;20133;-66
2022/04/10 18:34:29;;;;;;;10.18;2.55;;;;;;;5.40;100.00;101785.19;10162653;28;20099;-67
2022/04/10 18:39:26;;;;;;;9.25;1.50;;;;;;;5.44;100.00;101789.03;10160284;28;20052;-67
2022/04/10 18:44:23;;;;;;;10.10;2.00;;;;;;;5.41;100.00;101795.00;10172465;28;20120;-67
2022/04/10 18:49:35;;;;;;;10.13;2.28;;;;;;;5.40;100.00;101798.75;10174982;28;20058;-66
2022/04/10 18:54:32;;;;;;;9.93;2.42;;;;;;;5.35;100.00;101804.16;10168633;28;20053;-64
2022/04/10 18:59:29;;;;;;;11.82;3.22;;;;;;;5.31;100.00;101811.16;10172889;28;20460;-67
2022/04/10 19:04:25;;;;;;;11.65;2.30;;;;;;;5.34;100.00;101813.34;10149602;28;20101;-67
2022/04/10 19:09:22;;;;;;;8.30;1.58;;;;;;;5.35;100.00;101812.28;10201067;28;20563;-67
2022/04/10 19:14:21;;;;;;;13.40;2.00;;;;;;;5.29;100.00;101811.38;10213991;28;20092;-67
2022/04/10 19:19:18;;;;;;;12.68;1.65;;;;;;;5.23;100.00;101805.09;10203145;28;20046;-67
2022/04/10 19:24:15;;;;;;;11.95;2.08;;;;;;;5.25;100.00;101808.38;10187405;28;20148;-67
2022/04/10 19:29:12;;;;;;;11.18;2.85;;;;;;;5.24;100.00;101817.63;10192556;28;20140;-67
2022/04/10 19:34:08;;;;;;;9.45;1.77;;;;;;;5.22;100.00;101825.19;10204910;28;20116;-67
2022/04/10 19:39:06;;;;;;;11.98;1.70;;;;;;;5.21;100.00;101834.38;10214068;28;20045;-67
2022/04/10 19:44:03;;;;;;;14.13;2.47;;;;;;;5.33;100.00;101844.25;10203571;28;20418;-67
2022/04/10 19:49:00;;;;;;;9.98;2.00;;;;;;;5.27;100.00;101849.63;10192071;28;20466;-67
2022/04/10 19:54:01;;;;;;;9.02;2.08;;;;;;;5.34;100.00;101835.03;10205976;28;20076;-67
2022/04/10 19:58:58;;;;;;;5.93;2.08;;;;;;;5.34;100.00;101843.16;10182076;28;20128;-65
2022/04/10 20:03:54;;;;;;;6.78;1.85;;;;;;;5.23;100.00;101837.66;10169594;28;20487;-65
2022/04/10 20:08:51;;;;;;;9.93;1.50;;;;;;;5.12;100.00;101846.72;10170509;28;20127;-66
2022/04/10 20:13:48;;;;;;;11.50;1.60;;;;;;;5.11;100.00;101839.69;10182323;28;20057;-66
2022/04/10 20:18:48;;;;;;;12.45;1.85;;;;;;;5.03;100.00;101846.34;10179080;28;20076;-66
2022/04/10 20:23:45;;;;;;;9.52;1.90;;;;;;;4.90;100.00;101849.47;10173013;28;20078;-66
2022/04/10 20:28:43;;;;;;;13.65;2.13;;;;;;;4.90;100.00;101848.63;10170474;28;20042;-65
2022/04/10 20:33:40;;;;;;;8.18;1.80;;;;;;;4.90;100.00;101845.91;10172777;28;20076;-66
2022/04/10 20:38:36;;;;;;;11.02;2.00;;;;;;;4.76;100.00;101843.59;10165697;28;20042;-67
2022/04/10 20:43:33;;;;;;;8.88;2.47;;;;;;;4.82;100.00;101848.00;10163329;28;20560;-66
2022/04/10 20:48:30;;;;;;;16.83;3.95;;;;;;;4.71;100.00;101840.84;10180921;28;20145;-63
2022/04/10 20:53:26;;;;;;;15.73;2.22;;;;;;;4.66;100.00;101842.63;10188468;28;20060;-63
2022/04/10 20:58:23;;;;;;;9.80;1.48;;;;;;;4.69;100.00;101845.69;10184589;28;20139;-63
2022/04/10 21:03:19;;;;;;;12.82;2.10;;;;;;;4.70;100.00;101843.78;10189170;28;20069;-66
2022/04/10 21:08:16;;;;;;;8.40;1.80;;;;;;;4.63;100.00;101841.25;10187618;28;20073;-66
2022/04/10 21:13:15;;;;;;;11.82;2.50;;;;;;;4.64;100.00;101840.16;10187976;28;20485;-63
2022/04/10 21:18:12;;;;;;;14.95;2.88;;;;;;;4.64;100.00;101842.88;10188267;28;20083;-63
2022/04/10 21:23:09;;;;;;;7.18;1.50;;;;;;;4.67;100.00;101839.69;10182959;28;20124;-63
2022/04/10 21:28:05;;;;;;;7.90;1.50;;;;;;;4.56;100.00;101848.75;10178989;28;20486;-63
2022/04/10 21:33:02;;;;;;;9.23;2.30;;;;;;;4.53;100.00;101846.53;10176519;28;20077;-64
2022/04/10 21:37:58;;;;;;;14.23;2.17;;;;;;;4.51;100.00;101845.97;10181859;28;20521;-65
2022/04/10 21:42:58;;;;;;;11.43;1.90;;;;;;;4.49;100.00;101834.56;10185954;28;20066;-66
2022/04/10 21:47:54;;;;;;;10.93;2.78;;;;;;;4.50;100.00;101833.47;10175041;28;20687;-66
2022/04/10 21:52:51;;;;;;;12.57;1.70;;;;;;;4.48;100.00;101839.16;10174352;28;20092;-66
2022/04/10 21:57:48;;;;;;;11.93;2.28;;;;;;;4.38;100.00;101834.41;10185519;28;20100;-66
2022/04/10 22:02:45;;;;;;;8.57;1.63;;;;;;;4.32;100.00;101843.53;10182506;28;20050;-63
2022/04/10 22:07:41;;;;;;;11.65;2.03;;;;;;;4.28;100.00;101842.38;10181602;28;20050;-64
2022/04/10 22:12:38;;;;;;;10.52;2.00;;;;;;;4.24;100.00;101840.41;10183705;28;20096;-65
2022/04/10 22:17:34;;;;;;;13.32;3.60;;;;;;;4.21;100.00;101841.72;10185406;28;20077;-67
2022/04/10 22:22:31;;;;;;;7.53;1.58;;;;;;;4.11;100.00;101842.41;10182912;28;20140;-67
2022/04/10 22:27:28;;;;;;;9.82;1.88;;;;;;;4.15;100.00;101848.13;10179996;28;20117;-67
2022/04/10 22:32:24;;;;;;;5.15;1.58;;;;;;;4.10;100.00;101845.34;10187175;28;20081;-65
2022/04/10 22:37:20;;;;;;;9.45;2.00;;;;;;;4.17;100.00;101846.00;10182835;28;20157;-63
2022/04/10 22:42:17;;;;;;;13.18;2.53;;;;;;;4.11;100.00;101847.00;10181122;28;20045;-63
2022/04/10 22:47:13;;;;;;;6.70;1.70;;;;;;;4.01;100.00;101842.22;10182181;28;20049;-63
2022/04/10 22:52:10;;;;;;;10.70;1.88;;;;;;;3.91;100.00;101837.47;10176060;28;20137;-63